createdAt,value
2022-10-17T00:01:11.802Z,97588.63
2022-10-17T00:03:39.604Z,97574.28
2022-10-17T00:06:18.047Z,97586.06
2022-10-17T00:08:46.940Z,97583.53
2022-10-17T00:11:20.017Z,97582.00
2022-10-17T00:13:47.806Z,97587.84
2022-10-17T00:16:15.117Z,97587.47
2022-10-17T00:18:44.318Z,97589.84
2022-10-17T00:21:23.612Z,97584.81
2022-10-17T00:23:51.104Z,97589.84
2022-10-17T00:26:17.661Z,97592.19
2022-10-17T00:28:50.923Z,97589.56
2022-10-17T00:31:19.480Z,97601.66
2022-10-17T00:33:47.093Z,97593.94
2022-10-17T00:36:20.538Z,97604.03
2022-10-17T00:38:54.169Z,97600.97
2022-10-17T00:41:23.590Z,97600.91
2022-10-17T00:43:59.144Z,97600.19
2022-10-17T00:46:31.636Z,97591.69
2022-10-17T00:49:03.666Z,97593.66
2022-10-17T00:51:51.233Z,97596.41
2022-10-17T00:54:24.476Z,97603.41
2022-10-17T00:56:51.462Z,97599.88
2022-10-17T00:59:22.733Z,97600.69
2022-10-17T01:01:58.630Z,97595.63
2022-10-17T01:04:27.889Z,97600.34
2022-10-17T01:06:56.639Z,97591.50
2022-10-17T01:09:27.710Z,97596.94
2022-10-17T01:12:05.307Z,97593.47
2022-10-17T01:14:54.858Z,97599.38
2022-10-17T01:17:35.069Z,97605.66
2022-10-17T01:20:28.181Z,97598.63
2022-10-17T01:23:21.539Z,97595.50
2022-10-17T01:25:51.102Z,97601.75
2022-10-17T01:28:17.563Z,97601.75
2022-10-17T01:30:50.888Z,97613.44
2022-10-17T01:33:29.688Z,97603.75
2022-10-17T01:36:22.383Z,97599.91
2022-10-17T01:38:53.218Z,97601.47
2022-10-17T01:41:22.720Z,97602.66
2022-10-17T01:44:19.696Z,97588.75
2022-10-17T01:46:58.609Z,97599.56
2022-10-17T01:49:34.100Z,97593.44
2022-10-17T01:52:11.293Z,97602.75
2022-10-17T01:54:43.443Z,97600.03
2022-10-17T01:57:27.109Z,97600.03
2022-10-17T01:59:58.208Z,97583.13
2022-10-17T02:02:28.403Z,97590.50
2022-10-17T02:04:57.807Z,97594.75
2022-10-17T02:07:29.470Z,97594.06
2022-10-17T02:09:56.318Z,97594.06
2022-10-17T02:12:31.726Z,97591.41
2022-10-17T02:15:37.285Z,97584.78
2022-10-17T02:18:42.429Z,97589.44
2022-10-17T02:21:13.772Z,97588.69
2022-10-17T02:23:54.121Z,97588.75
2022-10-17T02:26:26.326Z,97591.84
2022-10-17T02:29:01.643Z,97586.09
2022-10-17T02:31:51.425Z,97592.28
2022-10-17T02:34:34.882Z,97593.50
2022-10-17T02:37:07.100Z,97595.50
2022-10-17T02:39:37.546Z,97604.84
2022-10-17T02:42:09.863Z,97601.69
2022-10-17T02:44:40.335Z,97606.72
2022-10-17T02:47:45.649Z,97608.16
2022-10-17T02:50:12.426Z,97612.75
2022-10-17T02:53:12.468Z,97588.44
2022-10-17T02:55:57.461Z,97602.25
2022-10-17T02:58:29.048Z,97608.84
2022-10-17T03:00:55.662Z,97611.81
2022-10-17T03:03:28.164Z,97612.50
2022-10-17T03:05:57.781Z,97612.09
2022-10-17T03:08:24.924Z,97614.75
2022-10-17T03:10:51.535Z,97608.56
2022-10-17T03:13:19.120Z,97612.34
2022-10-17T03:15:48.310Z,97612.72
2022-10-17T03:18:17.715Z,97618.81
2022-10-17T03:20:46.303Z,97617.09
2022-10-17T03:23:15.463Z,97621.31
2022-10-17T03:25:46.813Z,97625.03
2022-10-17T03:28:13.379Z,97617.66
2022-10-17T03:30:39.917Z,97624.16
2022-10-17T03:33:06.459Z,97611.53
2022-10-17T03:35:32.957Z,97632.03
2022-10-17T03:37:59.500Z,97636.28
2022-10-17T03:40:26.251Z,97635.16
2022-10-17T03:42:52.838Z,97638.66
2022-10-17T03:45:19.384Z,97641.06
2022-10-17T03:47:45.961Z,97644.09
2022-10-17T03:50:12.533Z,97643.31
2022-10-17T03:52:41.447Z,97652.97
2022-10-17T03:55:08.160Z,97652.59
2022-10-17T03:57:36.608Z,97650.66
2022-10-17T04:00:05.294Z,97665.44
2022-10-17T04:02:35.610Z,97662.84
2022-10-17T04:05:02.452Z,97657.84
2022-10-17T04:07:33.807Z,97660.97
2022-10-17T04:10:00.612Z,97668.84
2022-10-17T04:12:27.372Z,97670.03
2022-10-17T04:14:58.919Z,97664.25
2022-10-17T04:17:32.337Z,97676.75
2022-10-17T04:20:03.279Z,97672.19
2022-10-17T04:22:30.078Z,97667.13
2022-10-17T04:25:00.797Z,97681.19
2022-10-17T04:27:27.380Z,97680.69
2022-10-17T04:29:56.473Z,97679.41
2022-10-17T04:32:23.489Z,97674.31
2022-10-17T04:34:50.357Z,97686.28
2022-10-17T04:37:19.975Z,97687.06
2022-10-17T04:39:46.614Z,97679.38
2022-10-17T04:42:17.954Z,97687.47
2022-10-17T04:44:49.499Z,97687.47
2022-10-17T04:47:18.321Z,97681.69
2022-10-17T04:49:44.904Z,97694.75
2022-10-17T04:52:14.325Z,97682.34
2022-10-17T04:54:43.135Z,97694.31
2022-10-17T04:57:09.901Z,97678.47
2022-10-17T04:59:39.147Z,97688.84
2022-10-17T05:02:08.150Z,97695.03
2022-10-17T05:04:39.974Z,97697.06
2022-10-17T05:07:06.536Z,97703.28
2022-10-17T05:09:35.523Z,97697.84
2022-10-17T05:12:06.764Z,97700.16
2022-10-17T05:14:41.004Z,97709.53
2022-10-17T05:17:10.241Z,97711.44
2022-10-17T05:19:39.467Z,97696.41
2022-10-17T05:22:09.917Z,97702.94
2022-10-17T05:24:39.591Z,97708.72
2022-10-17T05:27:06.540Z,97707.16
2022-10-17T05:29:34.952Z,97712.56
2022-10-17T05:32:03.869Z,97709.09
2022-10-17T05:34:32.772Z,97712.56
2022-10-17T05:37:01.832Z,97715.31
2022-10-17T05:39:30.833Z,97719.13
2022-10-17T05:41:57.760Z,97716.88
2022-10-17T05:44:24.311Z,97721.94
2022-10-17T05:46:53.354Z,97716.59
2022-10-17T05:49:32.597Z,97728.63
2022-10-17T05:52:08.726Z,97729.56
2022-10-17T05:54:35.218Z,97731.59
2022-10-17T05:57:01.847Z,97724.16
2022-10-17T05:59:30.978Z,97723.44
2022-10-17T06:01:59.902Z,97729.19
2022-10-17T06:04:27.898Z,97742.38
2022-10-17T06:06:56.330Z,97738.44
2022-10-17T06:09:23.898Z,97749.31
2022-10-17T06:11:50.851Z,97741.66
2022-10-17T06:14:17.367Z,97753.94
2022-10-17T06:16:43.947Z,97753.47
2022-10-17T06:19:11.707Z,97755.72
2022-10-17T06:21:40.765Z,97760.72
2022-10-17T06:24:09.816Z,97764.63
2022-10-17T06:26:40.889Z,97749.97
2022-10-17T06:29:10.419Z,97773.44
2022-10-17T06:31:37.608Z,97778.91
2022-10-17T06:34:04.226Z,97759.28
2022-10-17T06:36:31.199Z,97772.28
2022-10-17T06:38:57.758Z,97777.72
2022-10-17T06:41:26.789Z,97776.59
2022-10-17T06:43:53.335Z,97784.28
2022-10-17T06:46:19.981Z,97789.72
2022-10-17T06:48:48.854Z,97789.56
2022-10-17T06:51:17.627Z,97793.00
2022-10-17T06:53:44.190Z,97791.75
2022-10-17T06:56:11.055Z,97804.53
2022-10-17T06:58:43.034Z,97803.41
2022-10-17T07:01:13.951Z,97819.31
2022-10-17T07:03:43.796Z,97816.97
2022-10-17T07:06:13.367Z,97825.16
2022-10-17T07:08:44.712Z,97825.81
2022-10-17T07:11:19.098Z,97833.50
2022-10-17T07:13:45.661Z,97809.31
2022-10-17T07:16:13.425Z,97831.94
2022-10-17T07:18:43.342Z,97835.72
2022-10-17T07:21:10.482Z,97841.50
2022-10-17T07:23:37.258Z,97834.84
2022-10-17T07:26:12.743Z,97827.75
2022-10-17T07:28:44.431Z,97836.53
2022-10-17T07:31:16.687Z,97842.25
2022-10-17T07:33:44.439Z,97838.75
2022-10-17T07:36:16.109Z,97850.50
2022-10-17T07:38:45.385Z,97841.22
2022-10-17T07:41:16.578Z,97844.53
2022-10-17T07:43:46.256Z,97854.38
2022-10-17T07:46:12.830Z,97834.75
2022-10-17T07:48:44.446Z,97857.53
2022-10-17T07:51:15.859Z,97859.41
2022-10-17T07:53:46.438Z,97859.72
2022-10-17T07:56:21.507Z,97862.28
2022-10-17T07:58:50.224Z,97862.50
2022-10-17T08:01:20.038Z,97863.03
2022-10-17T08:03:49.101Z,97866.94
2022-10-17T08:06:18.375Z,97869.03
2022-10-17T08:08:49.789Z,97871.25
2022-10-17T08:11:16.597Z,97874.25
2022-10-17T08:13:43.529Z,97875.13
2022-10-17T08:16:14.934Z,97870.56
2022-10-17T08:18:43.505Z,97877.13
2022-10-17T08:21:13.521Z,97878.28
2022-10-17T08:23:40.675Z,97876.34
2022-10-17T08:26:10.698Z,97875.78
2022-10-17T08:28:38.700Z,97883.97
2022-10-17T08:31:11.214Z,97886.19
2022-10-17T08:33:38.243Z,97881.66
2022-10-17T08:36:05.863Z,97886.19
2022-10-17T08:38:35.623Z,97888.78
2022-10-17T08:41:15.234Z,97884.94
2022-10-17T08:44:11.966Z,97883.03
2022-10-17T08:46:44.777Z,97881.19
2022-10-17T08:49:21.913Z,97890.13
2022-10-17T08:51:58.820Z,97895.03
2022-10-17T08:54:43.137Z,97883.06
2022-10-17T08:57:15.536Z,97893.81
2022-10-17T08:59:46.168Z,97892.03
2022-10-17T09:02:24.653Z,97888.28
2022-10-17T09:04:51.111Z,97881.72
2022-10-17T09:07:29.867Z,97886.50
2022-10-17T09:10:08.767Z,97887.13
2022-10-17T09:12:52.664Z,97893.78
2022-10-17T09:15:31.372Z,97891.06
2022-10-17T09:18:03.705Z,97888.69
2022-10-17T09:20:46.194Z,97883.56
2022-10-17T09:23:22.671Z,97886.16
2022-10-17T09:25:55.415Z,97882.88
2022-10-17T09:28:35.511Z,97883.28
2022-10-17T09:31:04.337Z,97885.25
2022-10-17T09:33:53.774Z,97886.56
2022-10-17T09:36:29.057Z,97881.75
2022-10-17T09:38:58.372Z,97885.34
2022-10-17T09:41:49.497Z,97883.56
2022-10-17T09:44:23.489Z,97889.56
2022-10-17T09:47:18.137Z,97884.53
2022-10-17T09:49:49.012Z,97881.91
2022-10-17T09:52:30.669Z,97884.03
2022-10-17T09:55:37.915Z,97890.09
2022-10-17T09:58:09.417Z,97884.34
2022-10-17T10:00:39.228Z,97881.44
2022-10-17T10:03:25.410Z,97882.72
2022-10-17T10:06:02.025Z,97878.44
2022-10-17T10:08:52.183Z,97881.84
2022-10-17T10:11:23.238Z,97886.91
2022-10-17T10:13:51.467Z,97883.13
2022-10-17T10:16:44.325Z,97890.03
2022-10-17T10:19:26.771Z,97885.56
2022-10-17T10:22:01.198Z,97883.41
2022-10-17T10:24:31.076Z,97883.59
2022-10-17T10:27:01.620Z,97877.78
2022-10-17T10:29:36.730Z,97885.47
2022-10-17T10:32:19.281Z,97878.50
2022-10-17T10:34:53.430Z,97878.66
2022-10-17T10:37:27.307Z,97877.72
2022-10-17T10:39:53.775Z,97877.00
2022-10-17T10:42:22.560Z,97877.78
2022-10-17T10:44:50.767Z,97880.16
2022-10-17T10:47:35.124Z,97871.53
2022-10-17T10:50:20.260Z,97874.13
2022-10-17T10:52:56.492Z,97877.66
2022-10-17T10:55:44.042Z,97874.50
2022-10-17T10:58:27.849Z,97877.34
2022-10-17T11:00:55.636Z,97870.06
2022-10-17T11:06:29.843Z,97861.53
2022-10-17T11:09:05.385Z,97867.63
2022-10-17T11:11:42.817Z,97870.84
2022-10-17T11:14:21.297Z,97874.22
2022-10-17T11:16:52.845Z,97876.44
2022-10-17T11:19:28.259Z,97869.50
2022-10-17T11:22:00.892Z,97870.09
2022-10-17T11:24:41.189Z,97868.69
2022-10-17T11:27:09.089Z,97867.94
2022-10-17T11:29:44.650Z,97861.88
2022-10-17T11:32:40.496Z,97860.13
2022-10-17T11:35:25.084Z,97862.22
2022-10-17T11:38:02.610Z,97858.59
2022-10-17T11:40:36.109Z,97845.63
2022-10-17T11:43:15.719Z,97848.56
2022-10-17T11:45:55.508Z,97857.47
2022-10-17T11:48:37.271Z,97852.81
2022-10-17T11:54:11.430Z,97853.75
2022-10-17T11:56:53.484Z,97842.59
2022-10-17T11:59:52.430Z,97842.13
2022-10-17T12:02:35.200Z,97842.69
2022-10-17T12:05:26.233Z,97840.22
2022-10-17T12:08:04.925Z,97828.22
2022-10-17T12:10:39.636Z,97834.59
2022-10-17T12:13:29.456Z,97832.44
2022-10-17T12:16:00.637Z,97832.56
2022-10-17T12:18:29.307Z,97828.16
2022-10-17T12:20:57.948Z,97828.41
2022-10-17T12:23:29.966Z,97829.41
2022-10-17T12:26:03.341Z,97818.72
2022-10-17T12:28:42.492Z,97818.88
2022-10-17T12:31:16.165Z,97824.97
2022-10-17T12:33:52.258Z,97823.94
2022-10-17T12:36:18.776Z,97824.94
2022-10-17T12:38:50.235Z,97811.16
2022-10-17T12:41:37.318Z,97814.72
2022-10-17T12:44:13.560Z,97816.97
2022-10-17T12:46:52.452Z,97817.47
2022-10-17T12:49:42.002Z,97811.38
2022-10-17T12:52:11.208Z,97818.44
2022-10-17T12:54:47.637Z,97813.00
2022-10-17T12:57:44.352Z,97802.47
2022-10-17T13:00:36.512Z,97801.84
2022-10-17T13:03:06.162Z,97807.34
2022-10-17T13:05:40.742Z,97805.09
2022-10-17T13:08:17.319Z,97809.38
2022-10-17T13:10:49.075Z,97802.81
2022-10-17T13:13:38.318Z,97796.69
2022-10-17T13:16:05.422Z,97804.03
2022-10-17T13:18:31.935Z,97799.44
2022-10-17T13:21:15.034Z,97804.94
2022-10-17T13:23:43.929Z,97801.28
2022-10-17T13:26:10.408Z,97795.78
2022-10-17T13:28:39.656Z,97788.16
2022-10-17T13:31:33.209Z,97777.91
2022-10-17T13:34:02.411Z,97781.72
2022-10-17T13:36:33.828Z,97779.09
2022-10-17T13:39:13.681Z,97787.06
2022-10-17T13:41:43.930Z,97787.22
2022-10-17T13:44:18.982Z,97781.41
2022-10-17T13:46:51.260Z,97792.09
2022-10-17T13:49:41.529Z,97788.75
2022-10-17T13:52:18.424Z,97783.53
2022-10-17T13:54:51.189Z,97789.81
2022-10-17T13:57:23.621Z,97782.47
2022-10-17T13:59:57.184Z,97779.41
2022-10-17T14:02:29.903Z,97781.09
2022-10-17T14:05:17.679Z,97784.75
2022-10-17T14:08:10.832Z,97784.16
2022-10-17T14:10:40.162Z,97778.63
2022-10-17T14:13:24.618Z,97781.69
2022-10-17T14:15:56.938Z,97772.66
2022-10-17T14:18:36.158Z,97778.94
2022-10-17T14:21:36.919Z,97772.03
2022-10-17T14:24:13.718Z,97775.25
2022-10-17T14:26:58.689Z,97777.06
2022-10-17T14:29:35.682Z,97771.69
2022-10-17T14:32:06.161Z,97775.84
2022-10-17T14:34:36.381Z,97778.19
2022-10-17T14:37:10.102Z,97774.78
2022-10-17T14:39:41.750Z,97773.69
2022-10-17T14:42:18.682Z,97784.88
2022-10-17T14:44:50.923Z,97774.16
2022-10-17T14:50:15.047Z,97781.66
2022-10-17T14:52:43.105Z,97778.78
2022-10-17T14:55:22.762Z,97787.78
2022-10-17T14:57:51.615Z,97788.97
2022-10-17T15:00:22.580Z,97783.16
2022-10-17T15:02:50.813Z,97782.28
2022-10-17T15:05:18.017Z,97788.56
2022-10-17T15:07:44.609Z,97776.16
2022-10-17T15:10:32.917Z,97775.56
2022-10-17T15:15:54.547Z,97784.00
2022-10-17T15:18:21.116Z,97780.00
2022-10-17T15:20:51.982Z,97782.63
2022-10-17T15:23:26.375Z,97780.94
2022-10-17T15:25:52.920Z,97787.06
2022-10-17T15:28:19.445Z,97781.38
2022-10-17T15:30:46.015Z,97778.47
2022-10-17T15:33:14.864Z,97782.75
2022-10-17T15:35:42.677Z,97785.06
2022-10-17T15:38:11.450Z,97781.25
2022-10-17T15:40:43.792Z,97776.66
2022-10-17T15:43:19.644Z,97783.25
2022-10-17T15:45:49.203Z,97775.75
2022-10-17T15:48:27.684Z,97787.22
2022-10-17T15:50:58.968Z,97792.56
2022-10-17T15:53:25.504Z,97785.66
2022-10-17T15:55:52.232Z,97801.72
2022-10-17T15:58:21.221Z,97798.50
2022-10-17T16:00:48.406Z,97800.03
2022-10-17T16:03:15.048Z,97792.06
2022-10-17T16:05:41.631Z,97813.75
2022-10-17T16:08:10.423Z,97811.16
2022-10-17T16:10:40.049Z,97812.34
2022-10-17T16:13:06.963Z,97816.56
2022-10-17T16:15:33.997Z,97816.09
2022-10-17T16:18:05.915Z,97806.91
2022-10-17T16:20:36.551Z,97806.84
2022-10-17T16:23:07.757Z,97805.09
2022-10-17T16:25:34.776Z,97812.84
2022-10-17T16:28:04.473Z,97815.88
2022-10-17T16:30:32.544Z,97817.81
2022-10-17T16:32:59.196Z,97814.41
2022-10-17T16:35:36.654Z,97829.03
2022-10-17T16:38:08.124Z,97826.66
2022-10-17T16:40:40.589Z,97822.19
2022-10-17T16:43:10.866Z,97833.31
2022-10-17T16:45:40.190Z,97837.81
2022-10-17T16:48:07.043Z,97833.78
2022-10-17T16:50:39.327Z,97841.28
2022-10-17T16:53:08.564Z,97838.03
2022-10-17T16:55:35.259Z,97831.34
2022-10-17T16:58:02.245Z,97838.81
2022-10-17T17:00:28.864Z,97838.38
2022-10-17T17:02:55.483Z,97842.56
2022-10-17T17:05:22.007Z,97855.16
2022-10-17T17:07:53.312Z,97855.72
2022-10-17T17:10:19.820Z,97857.69
2022-10-17T17:12:46.491Z,97859.78
2022-10-17T17:15:12.993Z,97866.13
2022-10-17T17:17:55.669Z,97875.63
2022-10-17T17:20:22.869Z,97879.91
2022-10-17T17:22:52.439Z,97889.75
2022-10-17T17:25:21.297Z,97888.66
2022-10-17T17:27:48.105Z,97892.00
2022-10-17T17:30:15.730Z,97889.25
2022-10-17T17:32:42.364Z,97889.13
2022-10-17T17:35:09.573Z,97896.69
2022-10-17T17:37:36.136Z,97908.16
2022-10-17T17:40:02.715Z,97896.00
2022-10-17T17:42:29.277Z,97911.44
2022-10-17T17:45:00.674Z,97909.06
2022-10-17T17:47:29.302Z,97904.22
2022-10-17T17:49:56.398Z,97908.25
2022-10-17T17:52:28.332Z,97917.44
2022-10-17T17:54:55.666Z,97915.22
2022-10-17T17:57:24.421Z,97914.97
2022-10-17T17:59:53.449Z,97919.38
2022-10-17T18:02:19.968Z,97921.09
2022-10-17T18:04:46.513Z,97927.34
2022-10-17T18:07:17.504Z,97922.84
2022-10-17T18:09:50.792Z,97936.78
2022-10-17T18:12:19.583Z,97939.50
2022-10-17T18:14:46.171Z,97938.38
2022-10-17T18:17:12.716Z,97944.31
2022-10-17T18:19:41.720Z,97940.44
2022-10-17T18:22:08.380Z,97941.88
2022-10-17T18:24:36.985Z,97943.53
2022-10-17T18:27:06.219Z,97938.47
2022-10-17T18:29:37.770Z,97950.69
2022-10-17T18:32:04.423Z,97939.22
2022-10-17T18:34:35.744Z,97954.69
2022-10-17T18:37:05.098Z,97940.00
2022-10-17T18:39:36.590Z,97952.56
2022-10-17T18:42:07.923Z,97952.63
2022-10-17T18:44:34.553Z,97944.53
2022-10-17T18:47:04.444Z,97939.97
2022-10-17T18:49:31.689Z,97949.88
2022-10-17T18:51:59.782Z,97945.13
2022-10-17T18:54:29.380Z,97953.09
2022-10-17T18:56:56.485Z,97938.97
2022-10-17T18:59:25.409Z,97944.53
2022-10-17T19:01:52.138Z,97946.25
2022-10-17T19:04:21.177Z,97956.66
2022-10-17T19:06:48.082Z,97955.59
2022-10-17T19:09:15.590Z,97953.09
2022-10-17T19:11:42.945Z,97954.09
2022-10-17T19:14:14.518Z,97963.91
2022-10-17T19:16:47.420Z,97965.19
2022-10-17T19:19:22.930Z,97960.13
2022-10-17T19:21:52.914Z,97965.13
2022-10-17T19:24:26.183Z,97955.38
2022-10-17T19:26:55.366Z,97962.38
2022-10-17T19:29:24.597Z,97960.84
2022-10-17T19:31:51.552Z,97963.28
2022-10-17T19:34:20.720Z,97950.53
2022-10-17T19:36:47.379Z,97966.38
2022-10-17T19:39:20.040Z,97957.03
2022-10-17T19:41:50.488Z,97959.66
2022-10-17T19:44:17.406Z,97962.28
2022-10-17T19:46:47.053Z,97959.56
2022-10-17T19:49:18.948Z,97966.06
2022-10-17T19:51:47.993Z,97959.19
2022-10-17T19:54:20.347Z,97954.09
2022-10-17T19:56:51.710Z,97966.16
2022-10-17T19:59:21.072Z,97966.00
2022-10-17T20:01:50.292Z,97972.69
2022-10-17T20:04:17.087Z,97959.56
2022-10-17T20:06:46.115Z,97986.66
2022-10-17T20:09:16.758Z,97988.63
2022-10-17T20:11:44.457Z,97989.47
2022-10-17T20:14:11.257Z,97987.53
2022-10-17T20:16:37.784Z,97994.88
2022-10-17T20:19:10.456Z,97993.75
2022-10-17T20:21:40.279Z,97994.44
2022-10-17T20:24:12.551Z,97989.75
2022-10-17T20:26:40.047Z,97991.63
2022-10-17T20:29:17.311Z,97985.03
2022-10-17T20:31:45.719Z,97997.13
2022-10-17T20:34:15.299Z,98002.28
2022-10-17T20:36:47.093Z,97998.84
2022-10-17T20:39:18.240Z,98003.97
2022-10-17T20:41:48.309Z,98002.81
2022-10-17T20:44:14.898Z,98007.59
2022-10-17T20:46:48.754Z,98011.50
2022-10-17T20:49:26.588Z,97998.31
2022-10-17T20:51:55.519Z,97995.59
2022-10-17T20:54:22.394Z,98006.03
2022-10-17T20:56:53.777Z,98003.41
2022-10-17T20:59:25.852Z,98010.50
2022-10-17T21:01:54.792Z,98014.44
2022-10-17T21:04:44.869Z,98014.50
2022-10-17T21:07:08.050Z,98010.66
2022-10-17T21:09:34.614Z,98004.13
2022-10-17T21:14:36.480Z,98001.38
2022-10-17T21:17:05.280Z,97989.78
2022-10-17T21:19:38.147Z,97997.19
2022-10-17T21:22:07.890Z,97998.00
2022-10-17T21:24:34.774Z,97999.19
2022-10-17T21:27:03.971Z,98004.34
2022-10-17T21:29:30.512Z,98014.53
2022-10-17T21:31:57.125Z,98015.00
2022-10-17T21:34:25.066Z,98021.56
2022-10-17T21:36:52.428Z,98010.75
2022-10-17T21:39:19.137Z,98017.41
2022-10-17T21:41:47.926Z,98030.25
2022-10-17T21:44:19.982Z,98030.59
2022-10-17T21:46:47.131Z,98031.47
2022-10-17T21:49:15.869Z,98027.97
2022-10-17T21:51:45.453Z,98025.72
2022-10-17T21:54:12.247Z,98030.38
2022-10-17T21:56:39.229Z,98021.84
2022-10-17T21:59:06.442Z,98017.91
2022-10-17T22:01:38.044Z,98019.75
2022-10-17T22:04:11.301Z,98011.56
2022-10-17T22:06:42.124Z,98005.31
2022-10-17T22:09:14.411Z,98000.28
2022-10-17T22:11:41.604Z,98004.09
2022-10-17T22:14:13.626Z,98011.81
2022-10-17T22:16:40.974Z,98011.00
2022-10-17T22:19:11.312Z,97996.94
2022-10-17T22:21:40.526Z,98001.97
2022-10-17T22:24:10.700Z,97997.75
2022-10-17T22:26:38.035Z,97996.63
2022-10-17T22:29:08.424Z,97997.09
2022-10-17T22:31:36.080Z,97997.91
2022-10-17T22:34:05.108Z,98004.97
2022-10-17T22:36:35.097Z,98005.38
2022-10-17T22:39:04.146Z,98003.50
2022-10-17T22:41:30.735Z,98007.00
2022-10-17T22:43:57.774Z,98006.22
2022-10-17T22:46:24.511Z,98005.03
2022-10-17T22:48:51.107Z,98005.44
2022-10-17T22:51:17.905Z,98004.97
2022-10-17T22:53:44.632Z,98010.00
2022-10-17T22:56:14.819Z,98010.78
2022-10-17T22:58:44.046Z,98015.84
2022-10-17T23:01:15.395Z,98018.91
2022-10-17T23:03:42.418Z,98012.69
2022-10-17T23:06:11.467Z,98009.13
2022-10-17T23:08:38.831Z,98009.56
2022-10-17T23:11:08.598Z,98006.84
2022-10-17T23:13:35.808Z,98001.78
2022-10-17T23:16:02.523Z,98001.38
2022-10-17T23:21:00.544Z,97977.94
2022-10-17T23:23:27.213Z,97985.47
2022-10-17T23:25:57.232Z,97990.88
2022-10-17T23:28:23.786Z,97982.34
2022-10-17T23:30:55.118Z,97986.19
2022-10-17T23:33:24.143Z,97996.38
2022-10-17T23:35:50.646Z,98000.28
2022-10-17T23:38:19.993Z,97981.41
2022-10-17T23:40:51.031Z,97983.03
2022-10-17T23:43:17.573Z,97995.09
2022-10-17T23:45:46.886Z,98002.56
2022-10-17T23:48:18.164Z,98016.22
2022-10-17T23:50:45.158Z,98016.53
2022-10-17T23:53:15.032Z,98009.97
2022-10-17T23:55:41.958Z,97996.09
2022-10-17T23:58:13.122Z,98006.00
